createdAt,value
2019-05-09T00:01:17.968Z,1.70
2019-05-09T00:05:25.281Z,1.73
2019-05-09T00:09:28.707Z,1.90
2019-05-09T00:13:34.169Z,1.87
2019-05-09T00:17:38.851Z,2.10
2019-05-09T00:21:45.233Z,2.33
2019-05-09T00:25:49.783Z,2.47
2019-05-09T00:29:56.425Z,2.80
2019-05-09T00:34:04.397Z,2.80
2019-05-09T00:38:09.937Z,2.77
2019-05-09T00:42:14.539Z,2.90
2019-05-09T00:46:25.070Z,3.50
2019-05-09T00:50:29.713Z,3.77
2019-05-09T00:54:34.289Z,4.20
2019-05-09T00:58:38.875Z,3.47
2019-05-09T01:02:43.631Z,4.00
2019-05-09T01:06:48.286Z,3.90
2019-05-09T01:10:54.297Z,4.20
2019-05-09T01:14:59.135Z,4.13
2019-05-09T01:19:03.861Z,4.47
2019-05-09T01:23:08.497Z,4.60
2019-05-09T01:27:14.243Z,4.33
2019-05-09T01:31:18.847Z,5.37
2019-05-09T01:35:23.639Z,6.30
2019-05-09T01:39:28.212Z,7.33
2019-05-09T01:43:33.783Z,7.40
2019-05-09T01:47:38.509Z,9.97
2019-05-09T01:51:44.465Z,9.90
2019-05-09T01:55:58.487Z,10.23
2019-05-09T02:00:04.188Z,10.63
2019-05-09T02:04:08.780Z,11.13
2019-05-09T02:08:14.252Z,11.43
2019-05-09T02:12:19.071Z,10.83
2019-05-09T02:16:54.428Z,10.90
2019-05-09T02:20:59.016Z,11.07
2019-05-09T02:25:07.256Z,10.23
2019-05-09T02:29:13.850Z,10.57
2019-05-09T02:33:18.115Z,10.20
2019-05-09T02:37:22.650Z,9.93
2019-05-09T02:41:28.638Z,9.77
2019-05-09T02:45:39.814Z,9.63
2019-05-09T02:49:44.379Z,9.43
2019-05-09T02:53:49.009Z,9.13
2019-05-09T02:57:55.117Z,8.77
2019-05-09T03:02:24.726Z,9.00
2019-05-09T03:06:29.305Z,9.77
2019-05-09T03:10:33.894Z,9.30
2019-05-09T03:14:38.665Z,9.37
2019-05-09T03:18:43.361Z,10.07
2019-05-09T03:22:48.677Z,10.17
2019-05-09T03:26:59.502Z,10.10
2019-05-09T03:31:05.099Z,10.37
2019-05-09T03:35:09.969Z,9.90
2019-05-09T03:39:14.595Z,9.63
2019-05-09T03:43:19.176Z,9.33
2019-05-09T03:47:47.739Z,8.80
2019-05-09T03:51:51.715Z,8.20
2019-05-09T03:55:57.913Z,7.97
2019-05-09T04:00:02.485Z,5.83
2019-05-09T04:04:08.737Z,6.07
2019-05-09T04:08:22.644Z,5.77
2019-05-09T04:12:28.327Z,4.97
2019-05-09T04:16:33.012Z,17.23
2019-05-09T04:20:37.783Z,16.47
2019-05-09T04:24:42.496Z,5.63
2019-05-09T04:28:47.288Z,3.97
2019-05-09T04:32:51.942Z,3.60
2019-05-09T04:36:57.607Z,3.80
2019-05-09T04:41:02.400Z,4.13
2019-05-09T04:45:33.131Z,2.60
2019-05-09T04:49:41.081Z,3.10
2019-05-09T04:53:44.026Z,2.23
2019-05-09T04:57:48.659Z,2.40
2019-05-09T05:02:08.611Z,2.63
2019-05-09T05:06:12.781Z,2.90
2019-05-09T05:10:18.396Z,2.10
2019-05-09T05:14:23.093Z,2.00
2019-05-09T05:18:28.451Z,1.80
2019-05-09T05:22:39.334Z,2.07
2019-05-09T05:26:43.918Z,2.00
2019-05-09T05:30:48.597Z,1.80
2019-05-09T05:35:17.992Z,2.30
2019-05-09T05:39:22.529Z,2.50
2019-05-09T05:43:38.567Z,1.77
2019-05-09T05:47:45.537Z,2.20
2019-05-09T05:51:57.828Z,2.10
2019-05-09T05:56:02.403Z,2.33
2019-05-09T06:00:08.027Z,2.13
2019-05-09T06:04:12.565Z,2.30
2019-05-09T06:08:17.530Z,2.77
2019-05-09T06:12:22.189Z,1.80
2019-05-09T06:16:28.100Z,3.00
2019-05-09T06:20:32.868Z,2.07
2019-05-09T06:24:38.714Z,6.03
2019-05-09T06:28:43.588Z,3.37
2019-05-09T06:32:48.205Z,2.70
2019-05-09T06:36:52.744Z,1.87
2019-05-09T06:40:58.141Z,2.10
2019-05-09T06:45:27.404Z,1.53
2019-05-09T06:49:52.734Z,2.97
2019-05-09T06:53:58.522Z,1.90
2019-05-09T06:58:22.084Z,1.40
2019-05-09T07:02:47.744Z,1.67
2019-05-09T07:06:59.071Z,1.30
2019-05-09T07:11:03.580Z,1.50
2019-05-09T07:15:08.972Z,1.10
2019-05-09T07:19:13.713Z,1.57
2019-05-09T07:23:18.268Z,1.33
2019-05-09T07:27:22.828Z,1.57
2019-05-09T07:31:43.912Z,1.47
2019-05-09T07:35:48.496Z,1.23
2019-05-09T07:39:53.046Z,1.57
2019-05-09T07:43:58.328Z,2.07
2019-05-09T07:48:03.189Z,1.53
2019-05-09T07:52:10.273Z,3.97
2019-05-09T07:56:13.925Z,1.60
2019-05-09T08:00:23.257Z,13.67
2019-05-09T08:07:32.861Z,33.03
2019-05-09T08:08:34.038Z,1.70
2019-05-09T08:12:39.054Z,2.33
2019-05-09T08:16:43.736Z,1.70
2019-05-09T08:20:48.316Z,1.67
2019-05-09T08:24:52.901Z,1.80
2019-05-09T08:28:58.479Z,1.40
2019-05-09T08:33:03.262Z,1.70
2019-05-09T08:37:12.983Z,1.67
2019-05-09T08:41:18.590Z,1.30
2019-05-09T08:45:27.565Z,1.20
2019-05-09T08:49:38.821Z,1.53
2019-05-09T08:53:48.156Z,1.60
2019-05-09T08:57:52.788Z,1.50
2019-05-09T09:02:14.001Z,1.23
2019-05-09T09:06:03.578Z,1.20
2019-05-09T09:10:09.129Z,1.00
2019-05-09T09:14:13.677Z,1.57
2019-05-09T09:18:18.236Z,1.00
2019-05-09T09:22:22.764Z,1.00
2019-05-09T09:26:27.793Z,1.13
2019-05-09T09:30:32.566Z,1.00
2019-05-09T09:34:37.825Z,1.30
2019-05-09T09:38:42.568Z,1.20
2019-05-09T09:42:49.015Z,1.07
2019-05-09T09:46:53.305Z,1.60
2019-05-09T09:50:58.076Z,4.33
2019-05-09T09:55:02.813Z,2.17
2019-05-09T09:59:22.568Z,1.00
2019-05-09T10:03:27.160Z,2.83
2019-05-09T10:07:31.708Z,2.00
2019-05-09T10:11:36.291Z,2.43
2019-05-09T10:15:58.693Z,2.03
2019-05-09T10:20:22.506Z,1.40
2019-05-09T10:24:28.112Z,6.97
2019-05-09T10:28:32.780Z,2.30
2019-05-09T10:32:38.315Z,6.67
2019-05-09T10:36:43.039Z,3.73
2019-05-09T10:40:48.525Z,3.03
2019-05-09T10:45:02.229Z,4.27
2019-05-09T10:49:08.366Z,2.07
2019-05-09T10:53:13.565Z,4.00
2019-05-09T10:57:18.116Z,1.47
2019-05-09T11:01:22.778Z,0.80
2019-05-09T11:05:27.823Z,1.70
2019-05-09T11:09:32.436Z,0.97
2019-05-09T11:13:38.954Z,1.07
2019-05-09T11:17:43.184Z,0.90
2019-05-09T11:21:47.898Z,1.23
2019-05-09T11:25:52.566Z,0.93
2019-05-09T11:29:57.879Z,1.00
2019-05-09T11:34:02.705Z,1.00
2019-05-09T11:38:08.460Z,0.90
2019-05-09T11:42:13.177Z,1.53
2019-05-09T11:46:18.209Z,1.20
2019-05-09T11:50:23.493Z,10.13
2019-05-09T11:54:28.241Z,1.03
2019-05-09T11:58:33.033Z,1.33
2019-05-09T12:02:38.557Z,0.70
2019-05-09T12:06:43.205Z,1.00
2019-05-09T12:10:47.760Z,0.90
2019-05-09T12:58:30.604Z,1.23
2019-05-09T13:02:35.125Z,1.20
2019-05-09T13:06:39.712Z,1.10
2019-05-09T13:10:44.268Z,1.30
2019-05-09T13:14:48.835Z,1.20
2019-05-09T13:19:04.670Z,1.33
2019-05-09T13:23:10.038Z,1.33
2019-05-09T13:27:14.715Z,1.40
2019-05-09T13:31:19.570Z,1.40
2019-05-09T13:35:27.752Z,1.03
2019-05-09T13:39:32.477Z,1.00
2019-05-09T13:43:46.038Z,1.07
2019-05-09T13:47:43.228Z,11.33
2019-05-09T13:51:57.397Z,1.60
2019-05-09T13:55:54.055Z,1.00
2019-05-09T13:59:59.794Z,1.03
2019-05-09T14:04:04.383Z,1.20
2019-05-09T14:08:11.560Z,1.23
2019-05-09T14:12:17.313Z,1.00
2019-05-09T14:16:22.471Z,1.13
2019-05-09T14:20:27.525Z,1.30
2019-05-09T14:24:32.305Z,1.40
2019-05-09T14:28:36.814Z,1.13
2019-05-09T14:32:41.408Z,1.00
2019-05-09T14:36:49.319Z,1.10
2019-05-09T14:40:52.194Z,1.03
2019-05-09T14:44:58.548Z,1.00
2019-05-09T14:49:02.943Z,1.23
2019-05-09T14:53:08.663Z,1.20
2019-05-09T14:57:13.456Z,1.30
2019-05-09T15:01:19.409Z,0.90
2019-05-09T15:05:24.116Z,0.80
2019-05-09T15:09:28.655Z,0.97
2019-05-09T15:13:33.219Z,1.40
2019-05-09T15:17:37.910Z,1.20
2019-05-09T15:21:42.512Z,0.90
2019-05-09T15:25:48.091Z,0.80
2019-05-09T15:29:52.707Z,0.70
2019-05-09T15:33:57.343Z,0.73
2019-05-09T15:38:02.085Z,0.60
2019-05-09T15:42:07.427Z,0.60
2019-05-09T15:46:23.203Z,0.60
2019-05-09T15:50:27.906Z,0.50
2019-05-09T15:54:32.603Z,1.00
2019-05-09T15:58:38.554Z,0.70
2019-05-09T16:02:43.232Z,0.60
2019-05-09T16:06:50.248Z,0.63
2019-05-09T16:10:53.975Z,0.60
2019-05-09T16:14:58.547Z,0.60
2019-05-09T16:19:03.124Z,0.80
2019-05-09T16:23:08.618Z,0.47
2019-05-09T16:27:14.205Z,0.50
2019-05-09T16:31:20.397Z,0.70
2019-05-09T16:35:28.482Z,1.20
2019-05-09T16:39:32.380Z,1.57
2019-05-09T16:43:38.770Z,0.60
2019-05-09T16:47:43.273Z,0.67
2019-05-09T16:51:48.588Z,0.50
2019-05-09T16:55:53.470Z,0.60
2019-05-09T16:59:58.003Z,0.73
2019-05-09T17:04:02.569Z,0.60
2019-05-09T17:08:08.194Z,0.77
2019-05-09T17:12:12.892Z,0.40
2019-05-09T17:16:17.831Z,0.50
2019-05-09T17:20:27.774Z,0.50
2019-05-09T17:24:32.712Z,0.50
2019-05-09T17:28:37.711Z,0.60
2019-05-09T17:32:42.455Z,0.50
2019-05-09T17:36:47.016Z,0.30
2019-05-09T17:40:51.583Z,0.50
2019-05-09T17:44:57.910Z,0.67
2019-05-09T17:49:02.424Z,0.70
2019-05-09T17:53:08.645Z,0.90
2019-05-09T17:57:13.313Z,1.20
2019-05-09T18:01:18.155Z,1.27
2019-05-09T18:05:22.899Z,1.20
2019-05-09T18:09:28.572Z,1.30
2019-05-09T18:13:33.483Z,1.50
2019-05-09T18:17:38.372Z,1.30
2019-05-09T18:21:50.797Z,0.87
2019-05-09T18:25:49.622Z,0.80
2019-05-09T18:29:54.301Z,0.40
2019-05-09T18:34:07.776Z,0.80
2019-05-09T18:38:21.086Z,0.50
2019-05-09T18:42:27.462Z,0.80
2019-05-09T18:46:31.884Z,0.73
2019-05-09T18:50:36.451Z,1.07
2019-05-09T18:54:40.992Z,7.17
2019-05-09T18:58:45.561Z,2.70
2019-05-09T19:02:50.349Z,1.90
2019-05-09T19:06:54.936Z,1.20
2019-05-09T19:10:59.547Z,1.03
2019-05-09T19:15:06.127Z,0.90
2019-05-09T19:19:23.024Z,0.90
2019-05-09T19:23:27.585Z,0.97
2019-05-09T19:27:32.282Z,0.70
2019-05-09T19:31:37.086Z,0.70
2019-05-09T19:35:50.498Z,1.37
2019-05-09T19:39:55.600Z,2.53
2019-05-09T19:44:10.661Z,2.10
2019-05-09T19:48:15.815Z,1.87
2019-05-09T19:52:20.390Z,2.07
2019-05-09T19:56:24.965Z,1.20
2019-05-09T20:00:29.479Z,1.40
2019-05-09T20:04:34.052Z,1.00
2019-05-09T20:08:38.615Z,0.90
2019-05-09T20:12:48.583Z,0.80
2019-05-09T20:16:55.894Z,1.20
2019-05-09T20:21:00.582Z,1.30
2019-05-09T20:25:05.221Z,1.47
2019-05-09T20:29:09.777Z,1.10
2019-05-09T20:33:14.381Z,1.70
2019-05-09T20:37:18.903Z,1.30
2019-05-09T20:41:23.644Z,1.20
2019-05-09T20:45:28.404Z,1.53
2019-05-09T20:49:33.169Z,1.30
2019-05-09T20:53:38.036Z,1.20
2019-05-09T20:57:42.759Z,1.40
2019-05-09T21:01:47.549Z,1.30
2019-05-09T21:05:52.730Z,1.10
2019-05-09T21:09:57.472Z,1.30
2019-05-09T21:14:02.223Z,1.40
2019-05-09T21:18:06.976Z,1.30
2019-05-09T21:22:11.723Z,1.20
2019-05-09T21:26:16.502Z,1.25
2019-05-09T21:30:22.361Z,1.00
2019-05-09T21:34:27.165Z,1.00
2019-05-09T21:38:31.695Z,1.17
2019-05-09T21:42:36.272Z,1.00
2019-05-09T21:46:40.853Z,1.22
2019-05-09T21:50:45.435Z,1.50
2019-05-09T21:54:50.018Z,1.50
2019-05-09T21:58:54.563Z,1.42
2019-05-09T22:02:59.126Z,1.70
2019-05-09T22:07:03.711Z,1.72
2019-05-09T22:11:08.275Z,1.65
2019-05-09T22:15:13.519Z,1.62
2019-05-09T22:19:18.196Z,1.60
2019-05-09T22:23:22.854Z,1.60
2019-05-09T22:27:27.435Z,1.40
2019-05-09T22:31:31.995Z,1.60
2019-05-09T22:35:36.615Z,1.52
2019-05-09T22:39:41.159Z,1.60
2019-05-09T22:43:45.740Z,1.57
2019-05-09T22:47:50.331Z,1.70
2019-05-09T22:51:54.900Z,1.60
2019-05-09T22:55:59.527Z,1.65
2019-05-09T23:00:04.157Z,1.40
2019-05-09T23:04:08.743Z,1.50
2019-05-09T23:08:13.319Z,1.53
2019-05-09T23:12:17.888Z,1.85
2019-05-09T23:16:26.974Z,2.50
2019-05-09T23:20:56.432Z,2.90
2019-05-09T23:25:01.015Z,3.45
2019-05-09T23:29:05.747Z,3.70
2019-05-09T23:33:10.296Z,3.95
2019-05-09T23:37:14.869Z,4.70
2019-05-09T23:41:19.402Z,4.67
2019-05-09T23:45:23.977Z,4.85
2019-05-09T23:49:28.563Z,5.78
2019-05-09T23:53:37.391Z,6.00
2019-05-09T23:57:59.637Z,6.85
